WATERFRONT PARK AT CHARLESTON SC US NWS current weather conditions

sailwx.info

Wind from 186 at 5 knots gusting 6

Last reported at 2019-Dec-09 21:30 UTC.
Time now 2019-Dec-09 23:05 UTC

Location: N 32°46' W 079°55'.
View on Google Maps.

See reports from other nearby stations

  
Tides and Currents Weather Stations Pressure Air Temp Water Temp Dewpoint Dewpoint Depression Visibility Wind Speed Wind Dir Waves Ship Positions
date/time (UTC)wind fromknots sea level pressurealtimeterstation pressurevisibilityair tempwater tempwave heightnotes
2019-Dec-09 21:30 186 5 gusting 6
2019-Dec-09 20:30 146 2 gusting 4
2019-Dec-09 19:30 130 8 gusting 8
2019-Dec-09 18:30 119 3 gusting 5
2019-Dec-09 17:30 117 2 gusting 3
2019-Dec-09 16:30 187 1 gusting 2
2019-Dec-09 15:30 350 1 gusting 2
2019-Dec-09 14:30 026 3 gusting 5
2019-Dec-09 13:30 071 2 gusting 4
2019-Dec-09 12:30 074 4 gusting 6
2019-Dec-09 11:30 038 4 gusting 4
2019-Dec-09 10:30 075 2 gusting 5
2019-Dec-09 09:30 082 4 gusting 5
2019-Dec-09 08:30 056 4 gusting 5
2019-Dec-09 07:30 044 3 gusting 7
2019-Dec-09 06:30 067 5 gusting 7
2019-Dec-09 05:30 076 4 gusting 6
2019-Dec-09 04:30 045 2 gusting 4
2019-Dec-09 03:30 031 5 gusting 6
2019-Dec-09 02:30 059 4 gusting 6
2019-Dec-09 01:30 037 7 gusting 9
2019-Dec-09 00:30 018 6 gusting 7
2019-Dec-08 23:30 021 8 gusting 10
2019-Dec-08 22:30 356 3 gusting 5
2019-Dec-08 21:30 001 3 gusting 4
2019-Dec-08 20:30 014 5 gusting 6
2019-Dec-08 19:30 009 8 gusting 11
2019-Dec-08 18:30 349 9 gusting 12
2019-Dec-08 17:30 007 7 gusting 9
2019-Dec-08 16:30 020 8 gusting 10
2019-Dec-08 15:30 008 7 gusting 10
2019-Dec-08 14:30 007 7 gusting 9
2019-Dec-08 13:30 021 8 gusting 10
2019-Dec-08 12:30 024 9 gusting 11
2019-Dec-08 11:30 026 10 gusting 13
2019-Dec-08 10:30 021 11 gusting 14
2019-Dec-08 09:30 027 9 gusting 11
2019-Dec-08 08:30 031 11 gusting 13
2019-Dec-08 07:30 028 10 gusting 13
2019-Dec-08 06:30 028 9 gusting 12
2019-Dec-08 05:30 032 10 gusting 13
2019-Dec-08 04:30 024 10 gusting 12
2019-Dec-08 03:30 027 7 gusting 9
2019-Dec-08 02:30 033 6 gusting 8
2019-Dec-08 01:30 052 7 gusting 9
2019-Dec-08 00:30 049 8 gusting 10
2019-Dec-07 23:30 060 8 gusting 11